createdAt,value
2017-10-22T00:02:03.451Z,3.40
2017-10-22T00:04:32.399Z,3.20
2017-10-22T00:07:01.748Z,3.30
2017-10-22T00:09:30.742Z,3.13
2017-10-22T00:11:59.734Z,3.43
2017-10-22T00:14:30.177Z,3.70
2017-10-22T00:16:59.901Z,3.30
2017-10-22T00:19:29.592Z,3.07
2017-10-22T00:21:59.319Z,3.50
2017-10-22T00:24:28.769Z,3.60
2017-10-22T00:26:57.725Z,3.73
2017-10-22T00:29:26.647Z,3.70
2017-10-22T00:31:55.584Z,3.80
2017-10-22T00:34:25.296Z,3.80
2017-10-22T00:36:54.989Z,5.37
2017-10-22T00:39:24.720Z,3.50
2017-10-22T00:41:54.401Z,3.73
2017-10-22T00:44:23.339Z,4.10
2017-10-22T00:46:53.403Z,3.93
2017-10-22T00:49:22.414Z,3.70
2017-10-22T00:51:51.346Z,3.90
2017-10-22T00:54:20.685Z,3.97
2017-10-22T00:56:49.638Z,3.47
2017-10-22T00:59:18.596Z,4.20
2017-10-22T01:01:48.296Z,4.13
2017-10-22T01:04:18.013Z,3.53
2017-10-22T01:06:47.408Z,3.50
2017-10-22T01:09:16.344Z,3.93
2017-10-22T01:11:45.664Z,4.00
2017-10-22T01:14:14.639Z,3.33
2017-10-22T01:16:44.336Z,3.63
2017-10-22T01:19:13.700Z,3.20
2017-10-22T01:21:43.400Z,3.30
2017-10-22T01:24:12.754Z,2.97
2017-10-22T01:26:41.694Z,3.40
2017-10-22T01:29:11.005Z,3.17
2017-10-22T01:31:39.953Z,2.70
2017-10-22T01:34:09.647Z,2.97
2017-10-22T01:36:38.598Z,3.00
2017-10-22T01:39:07.519Z,3.67
2017-10-22T01:41:36.860Z,3.03
2017-10-22T01:44:05.791Z,3.30
2017-10-22T01:46:34.720Z,3.17
2017-10-22T01:49:04.639Z,3.57
2017-10-22T01:51:33.572Z,2.83
2017-10-22T01:54:03.268Z,3.47
2017-10-22T01:56:32.622Z,3.43
2017-10-22T01:59:01.577Z,2.70
2017-10-22T02:01:30.540Z,2.63
2017-10-22T02:04:00.263Z,2.50
2017-10-22T02:06:29.968Z,2.60
2017-10-22T02:08:59.689Z,2.67
2017-10-22T02:11:28.626Z,2.70
2017-10-22T02:13:57.560Z,2.20
2017-10-22T02:16:27.248Z,3.13
2017-10-22T02:18:57.180Z,2.80
2017-10-22T02:21:26.851Z,2.63
2017-10-22T02:23:55.825Z,3.27
2017-10-22T02:26:24.880Z,2.90
2017-10-22T02:28:53.863Z,2.23
2017-10-22T02:31:22.855Z,3.70
2017-10-22T02:33:52.533Z,2.40
2017-10-22T02:36:21.476Z,2.80
2017-10-22T02:38:50.411Z,3.07
2017-10-22T02:41:19.374Z,2.03
2017-10-22T02:43:48.325Z,2.60
2017-10-22T02:46:17.664Z,2.40
2017-10-22T02:48:46.609Z,2.80
2017-10-22T02:51:15.575Z,2.80
2017-10-22T02:53:44.509Z,4.53
2017-10-22T02:56:14.216Z,3.33
2017-10-22T02:58:43.554Z,2.93
2017-10-22T03:01:12.998Z,2.67
2017-10-22T03:03:41.933Z,1.93
2017-10-22T03:06:10.883Z,2.33
2017-10-22T03:08:40.597Z,2.23
2017-10-22T03:11:10.411Z,2.37
2017-10-22T03:13:40.118Z,2.50
2017-10-22T03:16:09.442Z,2.10
2017-10-22T03:18:38.430Z,2.07
2017-10-22T03:21:07.404Z,2.13
2017-10-22T03:23:36.774Z,2.00
2017-10-22T03:26:05.705Z,2.33
2017-10-22T03:28:35.406Z,2.50
2017-10-22T03:31:05.164Z,2.43
2017-10-22T03:33:34.074Z,1.63
2017-10-22T03:36:03.011Z,2.10
2017-10-22T03:38:31.982Z,2.07
2017-10-22T03:41:01.301Z,2.30
2017-10-22T03:43:30.261Z,2.03
2017-10-22T03:45:59.202Z,1.90
2017-10-22T03:48:28.152Z,1.93
2017-10-22T03:50:57.866Z,1.97
2017-10-22T03:53:27.571Z,1.90
2017-10-22T03:55:57.276Z,2.60
2017-10-22T03:58:26.238Z,2.07
2017-10-22T04:00:55.537Z,1.80
2017-10-22T04:03:24.564Z,1.93
2017-10-22T04:05:53.485Z,1.90
2017-10-22T04:08:22.446Z,1.87
2017-10-22T04:10:52.161Z,2.67
2017-10-22T04:13:21.882Z,1.90
2017-10-22T04:15:51.593Z,2.30
2017-10-22T04:18:20.533Z,2.30
2017-10-22T04:20:49.490Z,2.83
2017-10-22T04:23:18.408Z,1.57
2017-10-22T04:25:47.371Z,1.70
2017-10-22T04:28:16.311Z,1.47
2017-10-22T04:30:45.244Z,1.83
2017-10-22T04:33:14.173Z,2.07
2017-10-22T04:35:43.508Z,1.70
2017-10-22T04:38:13.221Z,2.30
2017-10-22T04:40:42.649Z,1.93
2017-10-22T04:43:11.600Z,2.23
2017-10-22T04:45:41.312Z,1.70
2017-10-22T04:48:11.016Z,1.60
2017-10-22T04:50:40.333Z,1.30
2017-10-22T04:53:10.062Z,1.80
2017-10-22T04:55:39.024Z,1.50
2017-10-22T04:58:08.066Z,1.77
2017-10-22T05:00:36.992Z,1.90
2017-10-22T05:03:07.441Z,2.43
2017-10-22T05:05:37.165Z,2.30
2017-10-22T05:08:06.134Z,2.40
2017-10-22T05:10:35.123Z,2.10
2017-10-22T05:13:04.463Z,1.73
2017-10-22T05:15:33.384Z,1.73
2017-10-22T05:18:02.358Z,1.80
2017-10-22T05:20:31.288Z,2.37
2017-10-22T05:23:00.275Z,3.17
2017-10-22T05:25:29.204Z,2.00
2017-10-22T05:27:59.057Z,2.20
2017-10-22T05:30:28.929Z,2.70
2017-10-22T05:33:18.844Z,1.90
2017-10-22T05:35:47.784Z,2.60
2017-10-22T05:38:17.485Z,2.07
2017-10-22T05:40:46.825Z,1.93
2017-10-22T05:43:15.755Z,2.57
2017-10-22T05:45:44.858Z,1.93
2017-10-22T05:48:13.777Z,2.10
2017-10-22T05:50:42.719Z,2.17
2017-10-22T05:53:11.663Z,1.80
2017-10-22T05:55:40.837Z,2.27
2017-10-22T05:58:09.757Z,2.60
2017-10-22T06:00:38.688Z,2.33
2017-10-22T06:03:07.651Z,2.50
2017-10-22T06:05:36.623Z,2.27
2017-10-22T06:08:05.545Z,4.03
2017-10-22T06:10:34.896Z,2.50
2017-10-22T06:13:04.589Z,2.70
2017-10-22T06:15:33.539Z,2.93
2017-10-22T06:18:03.615Z,2.30
2017-10-22T06:20:33.337Z,3.07
2017-10-22T06:23:02.758Z,2.70
2017-10-22T06:25:31.714Z,2.60
2017-10-22T06:28:01.532Z,2.47
2017-10-22T06:30:30.520Z,2.50
2017-10-22T06:32:59.530Z,2.40
2017-10-22T06:35:28.503Z,2.33
2017-10-22T06:37:57.469Z,2.77
2017-10-22T06:40:26.484Z,3.33
2017-10-22T06:42:56.308Z,3.80
2017-10-22T06:45:26.023Z,3.97
2017-10-22T06:47:55.839Z,3.47
2017-10-22T06:50:25.608Z,3.40
2017-10-22T06:52:54.562Z,3.80
2017-10-22T06:55:25.268Z,3.10
2017-10-22T06:57:54.646Z,3.83
2017-10-22T07:00:24.500Z,4.00
2017-10-22T07:02:53.549Z,3.60
2017-10-22T07:05:22.545Z,3.07
2017-10-22T07:07:52.347Z,2.13
2017-10-22T07:10:21.389Z,2.70
2017-10-22T07:12:52.765Z,3.33
2017-10-22T07:15:21.842Z,3.90
2017-10-22T07:17:51.322Z,3.60
2017-10-22T07:20:20.423Z,3.60
2017-10-22T07:22:49.465Z,4.20
2017-10-22T07:25:19.230Z,4.47
2017-10-22T07:27:49.611Z,3.90
2017-10-22T07:30:18.799Z,5.10
2017-10-22T07:32:48.503Z,3.63
2017-10-22T07:35:17.573Z,3.20
2017-10-22T07:37:46.949Z,3.90
2017-10-22T07:40:15.995Z,2.77
2017-10-22T07:42:46.932Z,3.10
2017-10-22T07:45:16.692Z,3.20
2017-10-22T07:47:45.735Z,2.17
2017-10-22T07:50:15.407Z,2.87
2017-10-22T07:52:45.384Z,2.80
2017-10-22T07:55:14.348Z,2.47
2017-10-22T07:57:44.127Z,3.00
2017-10-22T08:00:13.159Z,3.90
2017-10-22T08:02:43.286Z,3.23
2017-10-22T08:05:13.452Z,2.67
2017-10-22T08:07:42.441Z,2.87
2017-10-22T08:10:11.838Z,3.23
2017-10-22T08:12:40.818Z,2.83
2017-10-22T08:15:11.381Z,3.70
2017-10-22T08:17:40.407Z,3.60
2017-10-22T08:20:09.826Z,3.80
2017-10-22T08:22:39.624Z,3.53
2017-10-22T08:25:09.379Z,3.60
2017-10-22T08:27:38.409Z,3.40
2017-10-22T08:30:08.160Z,3.90
2017-10-22T08:32:37.580Z,3.87
2017-10-22T08:35:07.360Z,3.27
2017-10-22T08:37:36.353Z,3.73
2017-10-22T08:40:05.347Z,5.13
2017-10-22T08:42:35.285Z,3.70
2017-10-22T08:45:04.797Z,4.00
2017-10-22T08:47:34.853Z,3.33
2017-10-22T08:50:05.455Z,4.17
2017-10-22T08:52:35.574Z,3.67
2017-10-22T08:55:04.593Z,4.13
2017-10-22T08:57:34.312Z,4.40
2017-10-22T09:00:04.128Z,4.40
2017-10-22T09:02:33.606Z,4.10
2017-10-22T09:05:03.238Z,4.30
2017-10-22T09:07:33.578Z,4.40
2017-10-22T09:10:02.983Z,4.50
2017-10-22T09:12:32.685Z,4.50
2017-10-22T09:15:02.629Z,4.13
2017-10-22T09:17:32.231Z,4.40
2017-10-22T09:20:01.284Z,4.77
2017-10-22T09:22:30.288Z,4.93
2017-10-22T09:25:00.872Z,5.30
2017-10-22T09:27:30.955Z,4.87
2017-10-22T09:29:59.944Z,4.80
2017-10-22T09:32:28.933Z,5.60
2017-10-22T09:34:58.790Z,5.10
2017-10-22T09:37:28.607Z,4.97
2017-10-22T09:39:58.350Z,5.80
2017-10-22T09:42:28.315Z,6.60
2017-10-22T09:44:57.355Z,5.30
2017-10-22T09:47:27.405Z,6.00
2017-10-22T09:49:56.778Z,5.47
2017-10-22T09:52:26.597Z,5.70
2017-10-22T09:54:58.802Z,5.80
2017-10-22T09:57:28.602Z,5.23
2017-10-22T09:59:57.670Z,5.67
2017-10-22T10:02:27.458Z,4.70
2017-10-22T10:04:56.670Z,5.57
2017-10-22T10:07:25.717Z,4.93
2017-10-22T10:09:54.766Z,5.07
2017-10-22T10:12:23.772Z,5.50
2017-10-22T10:14:54.153Z,5.07
2017-10-22T10:17:24.378Z,4.60
2017-10-22T10:19:54.018Z,6.60
2017-10-22T10:22:23.782Z,6.57
2017-10-22T10:24:54.339Z,5.07
2017-10-22T10:27:23.404Z,5.13
2017-10-22T10:29:52.444Z,5.07
2017-10-22T10:32:22.340Z,4.33
2017-10-22T10:34:51.402Z,4.03
2017-10-22T10:37:20.887Z,4.43
2017-10-22T10:39:49.955Z,3.53
2017-10-22T10:42:18.969Z,3.60
2017-10-22T10:44:50.318Z,5.00
2017-10-22T10:47:20.214Z,3.93
2017-10-22T10:49:50.107Z,3.47
2017-10-22T10:52:19.126Z,3.67
2017-10-22T10:54:48.540Z,3.37
2017-10-22T10:57:17.753Z,3.87
2017-10-22T10:59:47.837Z,4.33
2017-10-22T11:02:16.822Z,3.90
2017-10-22T11:04:46.239Z,3.00
2017-10-22T11:07:15.355Z,4.07
2017-10-22T11:09:44.424Z,3.60
2017-10-22T11:12:13.765Z,3.40
2017-10-22T11:14:42.785Z,4.77
2017-10-22T11:17:11.742Z,3.20
2017-10-22T11:19:41.823Z,4.00
2017-10-22T11:22:10.970Z,3.63
2017-10-22T11:24:40.244Z,4.10
2017-10-22T11:27:09.677Z,3.47
2017-10-22T11:29:39.609Z,3.97
2017-10-22T11:32:09.443Z,3.73
2017-10-22T11:34:39.488Z,4.80
2017-10-22T11:37:08.909Z,3.80
2017-10-22T11:39:38.657Z,6.17
2017-10-22T11:42:08.575Z,4.07
2017-10-22T11:44:38.445Z,3.60
2017-10-22T11:47:07.848Z,4.30
2017-10-22T11:49:36.820Z,3.03
2017-10-22T11:52:05.792Z,3.67
2017-10-22T11:54:34.732Z,2.83
2017-10-22T11:57:03.695Z,2.90
2017-10-22T11:59:32.650Z,2.77
2017-10-22T12:02:01.579Z,3.40
2017-10-22T12:04:30.546Z,3.17
2017-10-22T12:06:59.954Z,2.50
2017-10-22T12:09:28.921Z,3.13
2017-10-22T12:11:57.863Z,3.90
2017-10-22T12:14:26.898Z,2.90
2017-10-22T12:16:56.620Z,3.80
2017-10-22T12:19:26.341Z,2.70
2017-10-22T12:21:55.303Z,3.30
2017-10-22T12:24:24.245Z,3.37
2017-10-22T12:26:53.200Z,3.80
2017-10-22T12:29:22.168Z,4.00
2017-10-22T12:31:51.117Z,2.57
2017-10-22T12:34:20.477Z,4.43
2017-10-22T12:36:49.442Z,3.50
2017-10-22T12:39:18.902Z,4.20
2017-10-22T12:41:47.888Z,3.20
2017-10-22T12:44:17.646Z,3.00
2017-10-22T12:46:46.605Z,2.97
2017-10-22T12:49:16.351Z,2.70
2017-10-22T12:51:45.352Z,3.20
2017-10-22T12:54:14.704Z,3.23
2017-10-22T12:56:43.664Z,2.80
2017-10-22T12:59:13.391Z,2.73
2017-10-22T13:01:42.363Z,2.83
2017-10-22T13:04:11.322Z,3.33
2017-10-22T13:06:40.270Z,2.60
2017-10-22T13:09:09.261Z,3.07
2017-10-22T13:11:38.200Z,3.00
2017-10-22T13:14:07.176Z,2.83
2017-10-22T13:16:36.168Z,3.13
2017-10-22T13:19:05.872Z,2.03
2017-10-22T13:21:34.896Z,2.33
2017-10-22T13:24:03.822Z,1.67
2017-10-22T13:26:32.776Z,1.93
2017-10-22T13:29:01.729Z,2.13
2017-10-22T13:31:31.436Z,1.83
2017-10-22T13:34:00.388Z,2.70
2017-10-22T13:36:29.326Z,2.30
2017-10-22T13:38:59.047Z,2.53
2017-10-22T13:41:27.996Z,2.83
2017-10-22T13:43:57.083Z,2.90
2017-10-22T13:46:26.436Z,2.83
2017-10-22T13:48:55.393Z,3.30
2017-10-22T13:51:24.745Z,3.47
2017-10-22T13:53:53.710Z,2.80
2017-10-22T13:56:22.642Z,3.63
2017-10-22T13:58:51.595Z,3.80
2017-10-22T14:01:20.560Z,1.40
2017-10-22T14:03:49.537Z,1.13
2017-10-22T14:06:18.494Z,1.10
2017-10-22T14:08:47.432Z,0.97
2017-10-22T14:11:16.540Z,1.23
2017-10-22T14:13:46.238Z,2.33
2017-10-22T14:16:15.977Z,0.83
2017-10-22T14:18:44.916Z,1.00
2017-10-22T14:21:13.892Z,0.90
2017-10-22T14:23:42.835Z,1.30
2017-10-22T14:26:12.598Z,1.40
2017-10-22T14:28:41.534Z,1.17
2017-10-22T14:31:11.324Z,1.13
2017-10-22T14:33:40.266Z,1.17
2017-10-22T14:36:10.372Z,1.13
2017-10-22T14:38:39.342Z,1.30
2017-10-22T14:41:08.260Z,1.50
2017-10-22T14:43:37.635Z,1.40
2017-10-22T14:46:07.358Z,1.07
2017-10-22T14:48:36.307Z,1.00
2017-10-22T14:51:05.411Z,0.97
2017-10-22T14:53:34.444Z,1.10
2017-10-22T14:56:04.177Z,1.30
2017-10-22T14:58:33.601Z,1.23
2017-10-22T15:01:03.374Z,1.53
2017-10-22T15:03:32.473Z,1.73
2017-10-22T15:06:01.768Z,2.80
2017-10-22T15:08:30.862Z,1.50
2017-10-22T15:10:59.970Z,1.37
2017-10-22T15:13:29.072Z,1.40
2017-10-22T15:15:58.148Z,1.87
2017-10-22T15:18:27.185Z,1.30
2017-10-22T15:20:56.318Z,1.87
2017-10-22T15:23:25.324Z,1.60
2017-10-22T15:25:54.410Z,2.17
2017-10-22T15:28:23.820Z,2.07
2017-10-22T15:30:52.877Z,2.23
2017-10-22T15:33:22.614Z,2.20
2017-10-22T15:35:52.517Z,3.90
2017-10-22T15:38:21.540Z,3.43
2017-10-22T15:40:51.853Z,2.50
2017-10-22T15:43:20.886Z,4.67
2017-10-22T15:45:50.681Z,2.27
2017-10-22T15:48:19.780Z,1.73
2017-10-22T15:50:51.253Z,2.17
2017-10-22T15:53:20.470Z,2.00
2017-10-22T15:55:50.282Z,2.00
2017-10-22T15:58:20.067Z,2.03
2017-10-22T16:00:49.798Z,1.77
2017-10-22T16:03:19.584Z,2.37
2017-10-22T16:05:48.636Z,1.87
2017-10-22T16:08:18.102Z,1.60
2017-10-22T16:10:48.534Z,1.50
2017-10-22T16:13:17.605Z,1.30
2017-10-22T16:15:47.792Z,1.80
2017-10-22T16:18:17.407Z,2.40
2017-10-22T16:20:46.501Z,2.10
2017-10-22T16:23:15.584Z,2.30
2017-10-22T16:25:45.078Z,1.50
2017-10-22T16:28:14.242Z,1.80
2017-10-22T16:30:44.210Z,1.73
2017-10-22T16:33:14.672Z,2.07
2017-10-22T16:35:44.251Z,1.50
2017-10-22T16:38:14.995Z,1.70
2017-10-22T16:40:43.965Z,1.73
2017-10-22T16:43:12.901Z,2.17
2017-10-22T16:45:42.618Z,1.40
2017-10-22T16:48:11.594Z,2.03
2017-10-22T16:50:40.557Z,2.33
2017-10-22T16:53:10.267Z,2.57
2017-10-22T16:55:39.234Z,2.73
2017-10-22T16:58:08.689Z,2.40
2017-10-22T17:00:38.461Z,1.60
2017-10-22T17:03:07.800Z,2.67
2017-10-22T17:05:36.751Z,2.47
2017-10-22T17:08:05.701Z,3.20
2017-10-22T17:10:34.658Z,2.30
2017-10-22T17:13:03.593Z,2.30
2017-10-22T17:15:32.572Z,2.20
2017-10-22T17:18:04.438Z,2.13
2017-10-22T17:20:33.411Z,2.50
2017-10-22T17:23:03.120Z,2.47
2017-10-22T17:25:32.535Z,2.10
2017-10-22T17:28:02.956Z,2.30
2017-10-22T17:30:32.698Z,2.30
2017-10-22T17:33:08.194Z,2.50
2017-10-22T17:35:50.709Z,2.73
2017-10-22T17:38:20.501Z,2.37
2017-10-22T17:40:55.116Z,1.93
2017-10-22T17:43:30.082Z,2.60
2017-10-22T17:45:59.448Z,2.47
2017-10-22T17:48:29.017Z,2.43
2017-10-22T17:50:57.960Z,1.50
2017-10-22T17:53:27.034Z,2.47
2017-10-22T17:55:56.770Z,2.60
2017-10-22T17:58:27.554Z,2.23
2017-10-22T18:01:08.249Z,2.13
2017-10-22T18:03:37.618Z,4.50
2017-10-22T18:06:06.580Z,2.33
2017-10-22T18:08:36.340Z,1.87
2017-10-22T18:11:05.302Z,2.83
2017-10-22T18:13:34.288Z,2.33
2017-10-22T18:16:03.270Z,2.40
2017-10-22T18:18:32.665Z,3.00
2017-10-22T18:21:01.661Z,2.23
2017-10-22T18:23:30.600Z,3.03
2017-10-22T18:25:59.590Z,3.03
2017-10-22T18:28:28.575Z,2.47
2017-10-22T18:30:57.691Z,2.03
2017-10-22T18:33:26.648Z,2.50
2017-10-22T18:35:55.672Z,2.30
2017-10-22T18:38:24.631Z,2.50
2017-10-22T18:40:55.192Z,2.13
2017-10-22T18:43:24.212Z,2.77
2017-10-22T18:45:53.576Z,2.10
2017-10-22T18:48:23.313Z,3.03
2017-10-22T18:50:52.313Z,2.90
2017-10-22T18:53:22.971Z,3.20
2017-10-22T18:55:51.969Z,3.80
2017-10-22T18:58:21.348Z,2.53
2017-10-22T19:00:50.835Z,2.60
2017-10-22T19:03:20.830Z,2.50
2017-10-22T19:05:49.815Z,2.83
2017-10-22T19:08:19.203Z,2.93
2017-10-22T19:10:48.697Z,2.43
2017-10-22T19:13:17.737Z,3.13
2017-10-22T19:15:46.715Z,3.50
2017-10-22T19:18:15.778Z,2.30
2017-10-22T19:20:44.734Z,2.87
2017-10-22T19:23:14.500Z,3.13
2017-10-22T19:25:43.449Z,3.40
2017-10-22T19:28:12.918Z,2.80
2017-10-22T19:30:41.909Z,3.10
2017-10-22T19:33:11.684Z,3.10
2017-10-22T19:35:40.678Z,2.80
2017-10-22T19:38:10.447Z,3.20
2017-10-22T19:40:39.669Z,3.33
2017-10-22T19:43:09.025Z,3.20
2017-10-22T19:45:38.783Z,2.60
2017-10-22T19:48:07.769Z,3.33
2017-10-22T19:50:36.786Z,2.23
2017-10-22T19:53:05.764Z,2.97
2017-10-22T19:55:34.746Z,2.73
2017-10-22T19:58:03.698Z,2.70
2017-10-22T20:00:33.521Z,3.67
2017-10-22T20:03:02.999Z,3.20
2017-10-22T20:05:32.829Z,3.17
2017-10-22T20:08:02.604Z,2.13
2017-10-22T20:10:33.203Z,2.23
2017-10-22T20:13:02.313Z,2.47
2017-10-22T20:15:31.307Z,2.50
2017-10-22T20:18:01.038Z,2.77
2017-10-22T20:20:30.806Z,2.67
2017-10-22T20:22:59.787Z,3.77
2017-10-22T20:25:28.733Z,3.13
2017-10-22T20:27:57.803Z,3.20
2017-10-22T20:30:26.747Z,4.40
2017-10-22T20:32:55.754Z,5.50
2017-10-22T20:35:24.716Z,4.37
2017-10-22T20:37:56.090Z,3.53
2017-10-22T20:40:25.420Z,3.93
2017-10-22T20:42:54.450Z,3.47
2017-10-22T20:45:23.795Z,3.57
2017-10-22T20:47:53.488Z,3.30
2017-10-22T20:50:22.461Z,3.80
2017-10-22T20:52:51.443Z,3.80
2017-10-22T20:55:20.405Z,3.27
2017-10-22T20:57:49.330Z,3.57
2017-10-22T21:00:19.753Z,4.00
2017-10-22T21:02:49.478Z,3.00
2017-10-22T21:05:18.420Z,3.13
2017-10-22T21:07:47.364Z,3.43
2017-10-22T21:10:16.365Z,3.50
2017-10-22T21:12:45.323Z,3.33
2017-10-22T21:15:15.043Z,3.67
2017-10-22T21:17:44.399Z,3.87
2017-10-22T21:20:13.392Z,3.60
2017-10-22T21:22:42.740Z,3.50
2017-10-22T21:25:11.697Z,3.80
2017-10-22T21:27:40.632Z,4.60
2017-10-22T21:30:09.587Z,4.33
2017-10-22T21:32:38.517Z,3.73
2017-10-22T21:35:07.467Z,5.60
2017-10-22T21:37:36.538Z,4.30
2017-10-22T21:40:05.894Z,4.70
2017-10-22T21:42:35.276Z,4.87
2017-10-22T21:45:04.638Z,5.23
2017-10-22T21:47:33.593Z,5.10
2017-10-22T21:50:02.543Z,4.20
2017-10-22T21:52:31.548Z,4.30
2017-10-22T21:55:01.271Z,5.63
2017-10-22T21:57:30.665Z,5.17
2017-10-22T21:59:59.660Z,5.13
2017-10-22T22:02:29.371Z,4.90
2017-10-22T22:04:59.525Z,4.83
2017-10-22T22:07:28.471Z,4.97
2017-10-22T22:09:58.216Z,5.50
2017-10-22T22:12:27.594Z,4.87
2017-10-22T22:14:57.374Z,5.17
2017-10-22T22:17:26.301Z,4.37
2017-10-22T22:19:55.232Z,5.70
2017-10-22T22:22:24.610Z,5.10
2017-10-22T22:24:55.423Z,6.20
2017-10-22T22:27:24.463Z,5.73
2017-10-22T22:29:53.388Z,5.40
2017-10-22T22:32:22.356Z,5.53
2017-10-22T22:34:51.293Z,4.73
2017-10-22T22:37:20.272Z,5.10
2017-10-22T22:39:49.229Z,4.90
2017-10-22T22:42:18.652Z,4.53
2017-10-22T22:44:47.985Z,5.03
2017-10-22T22:47:16.949Z,4.90
2017-10-22T22:49:46.648Z,3.90
2017-10-22T22:52:16.378Z,4.40
2017-10-22T22:54:45.309Z,4.40
2017-10-22T22:57:14.357Z,5.17
2017-10-22T22:59:43.355Z,6.13
2017-10-22T23:02:13.042Z,4.27
2017-10-22T23:04:42.815Z,4.80
2017-10-22T23:07:11.804Z,4.30
2017-10-22T23:09:40.778Z,4.37
2017-10-22T23:12:09.702Z,4.60
2017-10-22T23:14:39.412Z,4.90
2017-10-22T23:17:08.782Z,5.10
2017-10-22T23:19:37.749Z,5.07
2017-10-22T23:22:06.678Z,4.53
2017-10-22T23:24:35.637Z,4.67
2017-10-22T23:27:04.609Z,4.27
2017-10-22T23:29:34.325Z,4.57
2017-10-22T23:32:04.016Z,4.50
2017-10-22T23:34:33.374Z,4.63
2017-10-22T23:37:02.800Z,4.30
2017-10-22T23:39:31.734Z,4.90
2017-10-22T23:42:00.665Z,4.20
2017-10-22T23:44:29.636Z,4.90
2017-10-22T23:46:58.676Z,5.50
2017-10-22T23:49:28.410Z,4.90
2017-10-22T23:51:57.370Z,5.07
2017-10-22T23:54:26.331Z,5.57
2017-10-22T23:56:55.257Z,5.83
2017-10-22T23:59:24.195Z,5.63
